El Paso (ELP/KELP)

Map

Information

Location
El Paso, TX
Local Time
19:45 / 7:45 pm
GMT Time
02:45 / 2:45 am
Gates
Unassigned
No FAA reported delays
METAR KELP 170151Z 34003KT 10SM SCT040 SCT130 11/02 A3002 RMK AO2 SLP138 T01110017
TAF KELP 162326Z 1700/1724 23007KT P6SM FEW040 SCT120 FM171000 04007KT P6SM FEW015 BKN050 BKN120 FM171100 03004KT 3SM BR SCT004 SCT015 BKN050 FM171500 05007KT P6SM FEW020 SCT050 BKN100 FM172000 06008KT P6SM VCSH BKN050 BKN110
  • No charts available